sensor_id;sensor_type;location;lat;lon;timestamp;P1;durP1;ratioP1;P2;durP2;ratioP2
69900;SDS011;57183;50.930;5.406;2022-07-23T00:01:15;13.48;;;9.38;;
69900;SDS011;57183;50.930;5.406;2022-07-23T00:03:41;11.15;;;9.13;;
69900;SDS011;57183;50.930;5.406;2022-07-23T00:06:06;11.13;;;9.30;;
69900;SDS011;57183;50.930;5.406;2022-07-23T00:08:32;13.15;;;8.80;;
69900;SDS011;57183;50.930;5.406;2022-07-23T00:10:58;10.30;;;9.23;;
69900;SDS011;57183;50.930;5.406;2022-07-23T00:13:23;10.68;;;9.57;;
69900;SDS011;57183;50.930;5.406;2022-07-23T00:15:49;10.13;;;9.13;;
69900;SDS011;57183;50.930;5.406;2022-07-23T00:18:15;14.90;;;9.80;;
69900;SDS011;57183;50.930;5.406;2022-07-23T00:20:40;10.98;;;9.82;;
69900;SDS011;57183;50.930;5.406;2022-07-23T00:23:06;9.15;;;8.15;;
69900;SDS011;57183;50.930;5.406;2022-07-23T00:25:31;15.30;;;10.43;;
69900;SDS011;57183;50.930;5.406;2022-07-23T00:27:58;16.95;;;10.32;;
69900;SDS011;57183;50.930;5.406;2022-07-23T00:30:24;15.40;;;10.07;;
69900;SDS011;57183;50.930;5.406;2022-07-23T00:32:51;14.43;;;9.60;;
69900;SDS011;57183;50.930;5.406;2022-07-23T00:35:21;13.85;;;10.60;;
69900;SDS011;57183;50.930;5.406;2022-07-23T00:37:51;10.32;;;8.27;;
69900;SDS011;57183;50.930;5.406;2022-07-23T00:40:17;10.32;;;8.85;;
69900;SDS011;57183;50.930;5.406;2022-07-23T00:42:43;9.40;;;8.50;;
69900;SDS011;57183;50.930;5.406;2022-07-23T00:45:09;14.75;;;8.70;;
69900;SDS011;57183;50.930;5.406;2022-07-23T00:47:35;10.38;;;8.77;;
69900;SDS011;57183;50.930;5.406;2022-07-23T00:50:01;12.77;;;9.88;;
69900;SDS011;57183;50.930;5.406;2022-07-23T00:52:32;9.52;;;7.88;;
69900;SDS011;57183;50.930;5.406;2022-07-23T00:54:58;8.02;;;7.32;;
69900;SDS011;57183;50.930;5.406;2022-07-23T00:57:24;8.13;;;7.35;;
69900;SDS011;57183;50.930;5.406;2022-07-23T00:59:50;9.10;;;8.30;;
69900;SDS011;57183;50.930;5.406;2022-07-23T01:02:16;9.82;;;8.07;;
69900;SDS011;57183;50.930;5.406;2022-07-23T01:04:41;8.50;;;7.63;;
69900;SDS011;57183;50.930;5.406;2022-07-23T01:07:07;8.45;;;7.65;;
69900;SDS011;57183;50.930;5.406;2022-07-23T01:09:33;11.63;;;10.10;;
69900;SDS011;57183;50.930;5.406;2022-07-23T01:11:59;11.00;;;9.90;;
69900;SDS011;57183;50.930;5.406;2022-07-23T01:14:25;8.82;;;7.93;;
69900;SDS011;57183;50.930;5.406;2022-07-23T01:16:51;10.85;;;9.85;;
69900;SDS011;57183;50.930;5.406;2022-07-23T01:19:17;8.90;;;7.20;;
69900;SDS011;57183;50.930;5.406;2022-07-23T01:21:48;10.93;;;6.18;;
69900;SDS011;57183;50.930;5.406;2022-07-23T01:24:15;5.28;;;4.78;;
69900;SDS011;57183;50.930;5.406;2022-07-23T01:26:44;7.45;;;6.72;;
69900;SDS011;57183;50.930;5.406;2022-07-23T01:29:11;6.85;;;6.15;;
69900;SDS011;57183;50.930;5.406;2022-07-23T01:31:37;11.30;;;7.13;;
69900;SDS011;57183;50.930;5.406;2022-07-23T01:34:03;8.90;;;8.02;;
69900;SDS011;57183;50.930;5.406;2022-07-23T01:36:29;11.95;;;9.00;;
69900;SDS011;57183;50.930;5.406;2022-07-23T01:38:55;9.20;;;8.15;;
69900;SDS011;57183;50.930;5.406;2022-07-23T01:41:21;9.20;;;8.30;;
69900;SDS011;57183;50.930;5.406;2022-07-23T01:43:47;7.53;;;6.82;;
69900;SDS011;57183;50.930;5.406;2022-07-23T01:46:13;7.88;;;7.07;;
69900;SDS011;57183;50.930;5.406;2022-07-23T01:48:38;9.27;;;7.32;;
69900;SDS011;57183;50.930;5.406;2022-07-23T01:51:04;12.63;;;9.25;;
69900;SDS011;57183;50.930;5.406;2022-07-23T01:53:30;7.45;;;6.75;;
69900;SDS011;57183;50.930;5.406;2022-07-23T01:55:56;7.43;;;6.72;;
69900;SDS011;57183;50.930;5.406;2022-07-23T01:58:22;6.82;;;6.20;;
69900;SDS011;57183;50.930;5.406;2022-07-23T02:00:48;7.30;;;6.50;;
69900;SDS011;57183;50.930;5.406;2022-07-23T02:03:14;8.55;;;6.82;;
69900;SDS011;57183;50.930;5.406;2022-07-23T02:05:40;10.23;;;8.38;;
69900;SDS011;57183;50.930;5.406;2022-07-23T02:08:05;9.60;;;8.60;;
69900;SDS011;57183;50.930;5.406;2022-07-23T02:10:31;8.77;;;7.93;;
69900;SDS011;57183;50.930;5.406;2022-07-23T02:12:57;9.88;;;7.22;;
69900;SDS011;57183;50.930;5.406;2022-07-23T02:15:22;7.57;;;6.90;;
69900;SDS011;57183;50.930;5.406;2022-07-23T02:17:48;13.80;;;8.45;;
69900;SDS011;57183;50.930;5.406;2022-07-23T02:20:14;10.43;;;8.10;;
69900;SDS011;57183;50.930;5.406;2022-07-23T02:22:39;6.55;;;5.85;;
69900;SDS011;57183;50.930;5.406;2022-07-23T02:25:06;7.88;;;7.07;;
69900;SDS011;57183;50.930;5.406;2022-07-23T02:27:33;7.82;;;7.13;;
69900;SDS011;57183;50.930;5.406;2022-07-23T02:30:00;9.20;;;8.00;;
69900;SDS011;57183;50.930;5.406;2022-07-23T02:32:27;7.63;;;4.63;;
69900;SDS011;57183;50.930;5.406;2022-07-23T02:34:53;32.38;;;5.78;;
69900;SDS011;57183;50.930;5.406;2022-07-23T02:37:19;7.10;;;6.50;;
69900;SDS011;57183;50.930;5.406;2022-07-23T02:39:44;9.25;;;6.70;;
69900;SDS011;57183;50.930;5.406;2022-07-23T02:42:10;8.30;;;7.53;;
69900;SDS011;57183;50.930;5.406;2022-07-23T02:44:36;8.73;;;7.63;;
69900;SDS011;57183;50.930;5.406;2022-07-23T02:47:02;8.70;;;7.53;;
69900;SDS011;57183;50.930;5.406;2022-07-23T02:49:27;6.50;;;5.78;;
69900;SDS011;57183;50.930;5.406;2022-07-23T02:51:53;5.40;;;4.90;;
69900;SDS011;57183;50.930;5.406;2022-07-23T02:54:19;6.72;;;5.35;;
69900;SDS011;57183;50.930;5.406;2022-07-23T02:56:45;5.50;;;4.63;;
69900;SDS011;57183;50.930;5.406;2022-07-23T02:59:11;8.10;;;5.20;;
69900;SDS011;57183;50.930;5.406;2022-07-23T03:01:37;6.38;;;5.80;;
69900;SDS011;57183;50.930;5.406;2022-07-23T03:04:02;7.15;;;4.72;;
69900;SDS011;57183;50.930;5.406;2022-07-23T03:06:28;6.03;;;5.40;;
69900;SDS011;57183;50.930;5.406;2022-07-23T03:08:54;7.38;;;6.38;;
69900;SDS011;57183;50.930;5.406;2022-07-23T03:11:20;6.00;;;5.45;;
69900;SDS011;57183;50.930;5.406;2022-07-23T03:13:45;8.73;;;6.10;;
69900;SDS011;57183;50.930;5.406;2022-07-23T03:16:11;5.72;;;5.18;;
69900;SDS011;57183;50.930;5.406;2022-07-23T03:18:37;4.85;;;4.45;;
69900;SDS011;57183;50.930;5.406;2022-07-23T03:21:02;8.30;;;5.78;;
69900;SDS011;57183;50.930;5.406;2022-07-23T03:23:28;5.75;;;4.60;;
69900;SDS011;57183;50.930;5.406;2022-07-23T03:25:54;7.53;;;5.75;;
69900;SDS011;57183;50.930;5.406;2022-07-23T03:28:19;6.50;;;4.97;;
69900;SDS011;57183;50.930;5.406;2022-07-23T03:30:46;4.53;;;4.13;;
69900;SDS011;57183;50.930;5.406;2022-07-23T03:33:12;5.60;;;4.95;;
69900;SDS011;57183;50.930;5.406;2022-07-23T03:35:39;5.93;;;5.32;;
69900;SDS011;57183;50.930;5.406;2022-07-23T03:38:05;5.28;;;4.78;;
69900;SDS011;57183;50.930;5.406;2022-07-23T03:40:30;5.88;;;4.75;;
69900;SDS011;57183;50.930;5.406;2022-07-23T03:42:56;11.82;;;5.25;;
69900;SDS011;57183;50.930;5.406;2022-07-23T03:45:22;12.13;;;6.03;;
69900;SDS011;57183;50.930;5.406;2022-07-23T03:47:47;8.90;;;8.13;;
69900;SDS011;57183;50.930;5.406;2022-07-23T03:50:13;8.85;;;7.45;;
69900;SDS011;57183;50.930;5.406;2022-07-23T03:52:39;6.75;;;6.05;;
69900;SDS011;57183;50.930;5.406;2022-07-23T03:55:05;14.65;;;7.45;;
69900;SDS011;57183;50.930;5.406;2022-07-23T03:57:31;6.90;;;6.28;;
69900;SDS011;57183;50.930;5.406;2022-07-23T03:59:57;6.63;;;6.13;;
69900;SDS011;57183;50.930;5.406;2022-07-23T04:02:22;7.85;;;7.15;;
69900;SDS011;57183;50.930;5.406;2022-07-23T04:04:48;7.18;;;6.55;;
69900;SDS011;57183;50.930;5.406;2022-07-23T04:07:15;6.80;;;6.10;;
69900;SDS011;57183;50.930;5.406;2022-07-23T04:09:42;8.05;;;6.75;;
69900;SDS011;57183;50.930;5.406;2022-07-23T04:12:08;6.32;;;5.70;;
69900;SDS011;57183;50.930;5.406;2022-07-23T04:14:34;5.32;;;4.80;;
69900;SDS011;57183;50.930;5.406;2022-07-23T04:17:00;6.70;;;4.32;;
69900;SDS011;57183;50.930;5.406;2022-07-23T04:19:26;6.45;;;5.20;;
69900;SDS011;57183;50.930;5.406;2022-07-23T04:21:52;7.40;;;5.10;;
69900;SDS011;57183;50.930;5.406;2022-07-23T04:24:18;5.82;;;5.32;;
69900;SDS011;57183;50.930;5.406;2022-07-23T04:26:44;7.45;;;6.38;;
69900;SDS011;57183;50.930;5.406;2022-07-23T04:29:10;6.88;;;6.18;;
69900;SDS011;57183;50.930;5.406;2022-07-23T04:31:36;7.72;;;7.00;;
69900;SDS011;57183;50.930;5.406;2022-07-23T04:34:02;9.52;;;7.63;;
69900;SDS011;57183;50.930;5.406;2022-07-23T04:36:28;6.68;;;6.07;;
69900;SDS011;57183;50.930;5.406;2022-07-23T04:38:54;6.97;;;6.28;;
69900;SDS011;57183;50.930;5.406;2022-07-23T04:41:20;6.00;;;5.50;;
69900;SDS011;57183;50.930;5.406;2022-07-23T04:43:45;6.93;;;5.07;;
69900;SDS011;57183;50.930;5.406;2022-07-23T04:46:11;4.50;;;4.10;;
69900;SDS011;57183;50.930;5.406;2022-07-23T04:48:37;5.18;;;4.05;;
69900;SDS011;57183;50.930;5.406;2022-07-23T04:51:03;5.57;;;5.03;;
69900;SDS011;57183;50.930;5.406;2022-07-23T04:53:29;6.88;;;6.28;;
69900;SDS011;57183;50.930;5.406;2022-07-23T04:55:54;8.05;;;6.93;;
69900;SDS011;57183;50.930;5.406;2022-07-23T04:58:20;8.55;;;7.03;;
69900;SDS011;57183;50.930;5.406;2022-07-23T05:00:46;7.40;;;6.68;;
69900;SDS011;57183;50.930;5.406;2022-07-23T05:03:12;8.23;;;7.43;;
69900;SDS011;57183;50.930;5.406;2022-07-23T05:05:37;9.05;;;8.15;;
69900;SDS011;57183;50.930;5.406;2022-07-23T05:08:03;10.57;;;9.50;;
69900;SDS011;57183;50.930;5.406;2022-07-23T05:10:29;9.63;;;8.73;;
69900;SDS011;57183;50.930;5.406;2022-07-23T05:12:55;11.68;;;10.48;;
69900;SDS011;57183;50.930;5.406;2022-07-23T05:15:21;14.20;;;11.80;;
69900;SDS011;57183;50.930;5.406;2022-07-23T05:17:46;12.45;;;11.07;;
69900;SDS011;57183;50.930;5.406;2022-07-23T05:20:12;15.48;;;12.40;;
69900;SDS011;57183;50.930;5.406;2022-07-23T05:22:38;10.48;;;9.48;;
69900;SDS011;57183;50.930;5.406;2022-07-23T05:25:04;16.80;;;12.52;;
69900;SDS011;57183;50.930;5.406;2022-07-23T05:27:31;13.52;;;12.18;;
69900;SDS011;57183;50.930;5.406;2022-07-23T05:29:56;16.33;;;11.57;;
69900;SDS011;57183;50.930;5.406;2022-07-23T05:32:22;13.30;;;12.00;;
69900;SDS011;57183;50.930;5.406;2022-07-23T05:34:48;13.15;;;10.40;;
69900;SDS011;57183;50.930;5.406;2022-07-23T05:37:14;16.13;;;12.13;;
69900;SDS011;57183;50.930;5.406;2022-07-23T05:39:40;15.18;;;11.00;;
69900;SDS011;57183;50.930;5.406;2022-07-23T05:42:05;12.25;;;11.02;;
69900;SDS011;57183;50.930;5.406;2022-07-23T05:44:31;13.13;;;11.85;;
69900;SDS011;57183;50.930;5.406;2022-07-23T05:46:57;12.80;;;11.52;;
69900;SDS011;57183;50.930;5.406;2022-07-23T05:49:22;14.43;;;12.10;;
69900;SDS011;57183;50.930;5.406;2022-07-23T05:51:48;13.85;;;11.32;;
69900;SDS011;57183;50.930;5.406;2022-07-23T05:54:14;12.88;;;11.68;;
69900;SDS011;57183;50.930;5.406;2022-07-23T05:56:39;11.73;;;10.15;;
69900;SDS011;57183;50.930;5.406;2022-07-23T05:59:05;11.07;;;10.13;;
69900;SDS011;57183;50.930;5.406;2022-07-23T06:01:31;10.20;;;9.20;;
69900;SDS011;57183;50.930;5.406;2022-07-23T06:03:56;11.18;;;10.07;;
69900;SDS011;57183;50.930;5.406;2022-07-23T06:06:22;13.80;;;12.20;;
69900;SDS011;57183;50.930;5.406;2022-07-23T06:08:48;17.20;;;11.70;;
69900;SDS011;57183;50.930;5.406;2022-07-23T06:11:13;11.98;;;10.77;;
69900;SDS011;57183;50.930;5.406;2022-07-23T06:13:39;11.02;;;9.95;;
69900;SDS011;57183;50.930;5.406;2022-07-23T06:16:04;10.60;;;9.68;;
69900;SDS011;57183;50.930;5.406;2022-07-23T06:18:30;16.10;;;11.88;;
69900;SDS011;57183;50.930;5.406;2022-07-23T06:20:56;9.63;;;8.63;;
69900;SDS011;57183;50.930;5.406;2022-07-23T06:23:21;12.88;;;11.55;;
69900;SDS011;57183;50.930;5.406;2022-07-23T06:25:47;12.43;;;11.23;;
69900;SDS011;57183;50.930;5.406;2022-07-23T06:28:13;14.27;;;11.48;;
69900;SDS011;57183;50.930;5.406;2022-07-23T06:30:38;13.88;;;10.05;;
69900;SDS011;57183;50.930;5.406;2022-07-23T06:33:04;9.57;;;8.57;;
69900;SDS011;57183;50.930;5.406;2022-07-23T06:35:30;11.93;;;10.63;;
69900;SDS011;57183;50.930;5.406;2022-07-23T06:37:55;11.48;;;10.48;;
69900;SDS011;57183;50.930;5.406;2022-07-23T06:40:21;10.57;;;9.60;;
69900;SDS011;57183;50.930;5.406;2022-07-23T06:42:47;11.70;;;10.55;;
69900;SDS011;57183;50.930;5.406;2022-07-23T06:45:13;11.10;;;10.05;;
69900;SDS011;57183;50.930;5.406;2022-07-23T06:47:38;11.55;;;9.88;;
69900;SDS011;57183;50.930;5.406;2022-07-23T06:50:05;12.45;;;11.18;;
69900;SDS011;57183;50.930;5.406;2022-07-23T06:52:31;13.48;;;11.82;;
69900;SDS011;57183;50.930;5.406;2022-07-23T06:54:57;12.00;;;10.55;;
69900;SDS011;57183;50.930;5.406;2022-07-23T06:57:22;9.48;;;8.02;;
69900;SDS011;57183;50.930;5.406;2022-07-23T06:59:50;12.63;;;11.43;;
69900;SDS011;57183;50.930;5.406;2022-07-23T07:02:16;12.63;;;11.43;;
69900;SDS011;57183;50.930;5.406;2022-07-23T07:04:42;12.93;;;11.52;;
69900;SDS011;57183;50.930;5.406;2022-07-23T07:07:07;13.68;;;11.13;;
69900;SDS011;57183;50.930;5.406;2022-07-23T07:09:33;17.35;;;12.90;;
69900;SDS011;57183;50.930;5.406;2022-07-23T07:11:59;12.95;;;11.45;;
69900;SDS011;57183;50.930;5.406;2022-07-23T07:14:24;13.70;;;12.30;;
69900;SDS011;57183;50.930;5.406;2022-07-23T07:16:50;12.68;;;11.43;;
69900;SDS011;57183;50.930;5.406;2022-07-23T07:19:16;11.30;;;10.07;;
69900;SDS011;57183;50.930;5.406;2022-07-23T07:21:41;12.90;;;11.60;;
69900;SDS011;57183;50.930;5.406;2022-07-23T07:24:07;15.27;;;12.93;;
69900;SDS011;57183;50.930;5.406;2022-07-23T07:26:33;18.15;;;12.60;;
69900;SDS011;57183;50.930;5.406;2022-07-23T07:28:59;13.98;;;12.40;;
69900;SDS011;57183;50.930;5.406;2022-07-23T07:31:25;14.77;;;11.65;;
69900;SDS011;57183;50.930;5.406;2022-07-23T07:33:50;13.45;;;11.10;;
69900;SDS011;57183;50.930;5.406;2022-07-23T07:36:16;11.73;;;10.25;;
69900;SDS011;57183;50.930;5.406;2022-07-23T07:38:42;13.88;;;10.90;;
69900;SDS011;57183;50.930;5.406;2022-07-23T07:41:08;13.55;;;9.70;;
69900;SDS011;57183;50.930;5.406;2022-07-23T07:43:35;13.23;;;11.93;;
69900;SDS011;57183;50.930;5.406;2022-07-23T07:46:01;14.95;;;12.05;;
69900;SDS011;57183;50.930;5.406;2022-07-23T07:48:28;12.55;;;10.90;;
69900;SDS011;57183;50.930;5.406;2022-07-23T07:50:54;13.82;;;10.60;;
69900;SDS011;57183;50.930;5.406;2022-07-23T07:53:19;11.85;;;10.45;;
69900;SDS011;57183;50.930;5.406;2022-07-23T07:55:45;10.30;;;9.15;;
69900;SDS011;57183;50.930;5.406;2022-07-23T07:58:11;8.77;;;7.50;;
69900;SDS011;57183;50.930;5.406;2022-07-23T08:00:36;14.40;;;9.63;;
69900;SDS011;57183;50.930;5.406;2022-07-23T08:03:02;13.77;;;10.88;;
69900;SDS011;57183;50.930;5.406;2022-07-23T08:05:29;9.68;;;8.70;;
69900;SDS011;57183;50.930;5.406;2022-07-23T08:07:56;10.85;;;8.35;;
69900;SDS011;57183;50.930;5.406;2022-07-23T08:10:23;10.20;;;9.10;;
69900;SDS011;57183;50.930;5.406;2022-07-23T08:12:52;10.65;;;8.38;;
69900;SDS011;57183;50.930;5.406;2022-07-23T08:15:20;8.43;;;7.50;;
69900;SDS011;57183;50.930;5.406;2022-07-23T08:17:47;11.13;;;7.80;;
69900;SDS011;57183;50.930;5.406;2022-07-23T08:20:15;9.07;;;8.18;;
69900;SDS011;57183;50.930;5.406;2022-07-23T08:22:57;11.05;;;9.93;;
69900;SDS011;57183;50.930;5.406;2022-07-23T08:25:31;9.70;;;7.90;;
69900;SDS011;57183;50.930;5.406;2022-07-23T08:28:00;12.38;;;8.65;;
69900;SDS011;57183;50.930;5.406;2022-07-23T08:30:27;11.10;;;9.30;;
69900;SDS011;57183;50.930;5.406;2022-07-23T08:32:57;9.50;;;7.60;;
69900;SDS011;57183;50.930;5.406;2022-07-23T08:37:55;7.78;;;6.97;;
69900;SDS011;57183;50.930;5.406;2022-07-23T08:40:21;10.73;;;7.88;;
69900;SDS011;57183;50.930;5.406;2022-07-23T08:42:48;13.70;;;9.55;;
69900;SDS011;57183;50.930;5.406;2022-07-23T08:45:16;9.98;;;7.10;;
69900;SDS011;57183;50.930;5.406;2022-07-23T08:47:44;11.65;;;7.63;;
69900;SDS011;57183;50.930;5.406;2022-07-23T08:50:10;9.77;;;8.88;;
69900;SDS011;57183;50.930;5.406;2022-07-23T08:52:36;10.43;;;9.25;;
69900;SDS011;57183;50.930;5.406;2022-07-23T08:55:03;9.73;;;8.73;;
69900;SDS011;57183;50.930;5.406;2022-07-23T08:57:30;9.52;;;7.30;;
69900;SDS011;57183;50.930;5.406;2022-07-23T08:59:56;11.05;;;9.10;;
69900;SDS011;57183;50.930;5.406;2022-07-23T09:02:22;10.48;;;9.27;;
69900;SDS011;57183;50.930;5.406;2022-07-23T09:04:48;11.63;;;6.55;;
69900;SDS011;57183;50.930;5.406;2022-07-23T09:07:13;11.00;;;9.60;;
69900;SDS011;57183;50.930;5.406;2022-07-23T09:09:40;16.75;;;9.55;;
69900;SDS011;57183;50.930;5.406;2022-07-23T09:12:06;12.85;;;9.27;;
69900;SDS011;57183;50.930;5.406;2022-07-23T09:14:38;8.52;;;7.70;;
69900;SDS011;57183;50.930;5.406;2022-07-23T09:17:12;10.57;;;7.32;;
69900;SDS011;57183;50.930;5.406;2022-07-23T09:19:40;11.93;;;8.48;;
69900;SDS011;57183;50.930;5.406;2022-07-23T09:22:19;7.35;;;6.40;;
69900;SDS011;57183;50.930;5.406;2022-07-23T09:25:06;8.25;;;7.55;;
69900;SDS011;57183;50.930;5.406;2022-07-23T09:30:14;8.60;;;7.50;;
69900;SDS011;57183;50.930;5.406;2022-07-23T09:32:40;11.02;;;7.13;;
69900;SDS011;57183;50.930;5.406;2022-07-23T09:35:06;12.63;;;5.85;;
69900;SDS011;57183;50.930;5.406;2022-07-23T09:37:32;7.10;;;6.30;;
69900;SDS011;57183;50.930;5.406;2022-07-23T09:40:08;10.93;;;6.60;;
69900;SDS011;57183;50.930;5.406;2022-07-23T09:42:36;9.98;;;7.32;;
69900;SDS011;57183;50.930;5.406;2022-07-23T09:45:02;6.95;;;6.22;;
69900;SDS011;57183;50.930;5.406;2022-07-23T09:47:29;7.55;;;5.43;;
69900;SDS011;57183;50.930;5.406;2022-07-23T09:50:09;6.57;;;5.85;;
69900;SDS011;57183;50.930;5.406;2022-07-23T09:52:47;8.05;;;6.45;;
69900;SDS011;57183;50.930;5.406;2022-07-23T09:55:15;6.55;;;5.40;;
69900;SDS011;57183;50.930;5.406;2022-07-23T09:57:42;5.82;;;4.20;;
69900;SDS011;57183;50.930;5.406;2022-07-23T10:00:15;6.00;;;5.30;;
69900;SDS011;57183;50.930;5.406;2022-07-23T10:02:41;5.65;;;5.15;;
69900;SDS011;57183;50.930;5.406;2022-07-23T10:05:10;5.78;;;4.50;;
69900;SDS011;57183;50.930;5.406;2022-07-23T10:07:37;6.32;;;5.72;;
69900;SDS011;57183;50.930;5.406;2022-07-23T10:10:04;6.38;;;4.60;;
69900;SDS011;57183;50.930;5.406;2022-07-23T10:12:31;7.20;;;4.35;;
69900;SDS011;57183;50.930;5.406;2022-07-23T10:15:09;5.10;;;4.60;;
69900;SDS011;57183;50.930;5.406;2022-07-23T10:17:35;6.22;;;4.25;;
69900;SDS011;57183;50.930;5.406;2022-07-23T10:20:03;6.55;;;4.10;;
69900;SDS011;57183;50.930;5.406;2022-07-23T10:22:33;6.43;;;4.22;;
69900;SDS011;57183;50.930;5.406;2022-07-23T10:31:00;5.40;;;4.25;;
69900;SDS011;57183;50.930;5.406;2022-07-23T10:36:17;4.00;;;3.00;;
69900;SDS011;57183;50.930;5.406;2022-07-23T10:41:33;3.08;;;2.42;;
69900;SDS011;57183;50.930;5.406;2022-07-23T10:50:20;2.88;;;2.53;;
69900;SDS011;57183;50.930;5.406;2022-07-23T10:57:57;3.00;;;2.40;;
69900;SDS011;57183;50.930;5.406;2022-07-23T11:00:24;4.10;;;2.65;;
69900;SDS011;57183;50.930;5.406;2022-07-23T11:02:55;2.80;;;2.20;;
69900;SDS011;57183;50.930;5.406;2022-07-23T11:05:24;3.03;;;1.88;;
69900;SDS011;57183;50.930;5.406;2022-07-23T11:08:11;2.35;;;1.88;;
69900;SDS011;57183;50.930;5.406;2022-07-23T11:10:41;3.97;;;2.17;;
69900;SDS011;57183;50.930;5.406;2022-07-23T11:29:37;2.20;;;1.20;;
69900;SDS011;57183;50.930;5.406;2022-07-23T11:32:19;1.50;;;1.40;;
69900;SDS011;57183;50.930;5.406;2022-07-23T11:37:49;2.13;;;0.95;;
69900;SDS011;57183;50.930;5.406;2022-07-23T11:40:10;2.15;;;1.50;;
69900;SDS011;57183;50.930;5.406;2022-07-23T11:42:38;1.92;;;1.25;;
69900;SDS011;57183;50.930;5.406;2022-07-23T11:48:22;2.33;;;1.42;;
69900;SDS011;57183;50.930;5.406;2022-07-23T11:50:49;4.68;;;2.05;;
69900;SDS011;57183;50.930;5.406;2022-07-23T11:53:23;3.50;;;2.33;;
69900;SDS011;57183;50.930;5.406;2022-07-23T11:55:53;3.50;;;1.73;;
69900;SDS011;57183;50.930;5.406;2022-07-23T11:58:20;1.80;;;1.58;;
69900;SDS011;57183;50.930;5.406;2022-07-23T12:00:46;3.00;;;1.50;;
69900;SDS011;57183;50.930;5.406;2022-07-23T12:03:12;2.28;;;1.33;;
69900;SDS011;57183;50.930;5.406;2022-07-23T12:05:38;2.72;;;1.35;;
69900;SDS011;57183;50.930;5.406;2022-07-23T12:08:06;2.65;;;1.20;;
69900;SDS011;57183;50.930;5.406;2022-07-23T12:10:37;1.58;;;1.48;;
69900;SDS011;57183;50.930;5.406;2022-07-23T12:13:05;1.60;;;1.45;;
69900;SDS011;57183;50.930;5.406;2022-07-23T12:15:38;1.70;;;1.60;;
69900;SDS011;57183;50.930;5.406;2022-07-23T12:18:12;1.83;;;1.52;;
69900;SDS011;57183;50.930;5.406;2022-07-23T12:20:43;3.08;;;1.98;;
69900;SDS011;57183;50.930;5.406;2022-07-23T12:23:11;2.13;;;1.70;;
69900;SDS011;57183;50.930;5.406;2022-07-23T12:25:41;2.05;;;1.30;;
69900;SDS011;57183;50.930;5.406;2022-07-23T12:28:12;3.65;;;1.95;;
69900;SDS011;57183;50.930;5.406;2022-07-23T12:30:41;3.47;;;1.50;;
69900;SDS011;57183;50.930;5.406;2022-07-23T12:33:25;2.55;;;1.77;;
69900;SDS011;57183;50.930;5.406;2022-07-23T12:35:53;2.15;;;1.58;;
69900;SDS011;57183;50.930;5.406;2022-07-23T12:38:21;3.25;;;1.48;;
69900;SDS011;57183;50.930;5.406;2022-07-23T12:40:57;1.27;;;1.17;;
69900;SDS011;57183;50.930;5.406;2022-07-23T12:43:27;3.53;;;1.73;;
69900;SDS011;57183;50.930;5.406;2022-07-23T12:45:55;4.05;;;1.75;;
69900;SDS011;57183;50.930;5.406;2022-07-23T12:48:36;4.18;;;1.50;;
69900;SDS011;57183;50.930;5.406;2022-07-23T12:51:16;2.30;;;1.30;;
69900;SDS011;57183;50.930;5.406;2022-07-23T12:53:44;1.35;;;1.23;;
69900;SDS011;57183;50.930;5.406;2022-07-23T12:56:13;2.20;;;1.50;;
69900;SDS011;57183;50.930;5.406;2022-07-23T13:03:58;3.55;;;1.60;;
69900;SDS011;57183;50.930;5.406;2022-07-23T13:06:31;2.35;;;1.42;;
69900;SDS011;57183;50.930;5.406;2022-07-23T13:08:58;2.13;;;1.88;;
69900;SDS011;57183;50.930;5.406;2022-07-23T13:11:25;1.40;;;1.23;;
69900;SDS011;57183;50.930;5.406;2022-07-23T13:13:50;2.65;;;1.65;;
69900;SDS011;57183;50.930;5.406;2022-07-23T13:16:16;1.63;;;1.20;;
69900;SDS011;57183;50.930;5.406;2022-07-23T13:18:42;3.97;;;1.77;;
69900;SDS011;57183;50.930;5.406;2022-07-23T13:21:08;2.67;;;1.55;;
69900;SDS011;57183;50.930;5.406;2022-07-23T13:23:33;2.30;;;1.50;;
69900;SDS011;57183;50.930;5.406;2022-07-23T13:25:59;1.95;;;1.58;;
69900;SDS011;57183;50.930;5.406;2022-07-23T13:28:25;1.80;;;1.70;;
69900;SDS011;57183;50.930;5.406;2022-07-23T13:30:51;2.38;;;1.73;;
69900;SDS011;57183;50.930;5.406;2022-07-23T13:33:21;2.90;;;1.65;;
69900;SDS011;57183;50.930;5.406;2022-07-23T13:35:48;3.58;;;1.60;;
69900;SDS011;57183;50.930;5.406;2022-07-23T13:38:15;1.92;;;1.77;;
69900;SDS011;57183;50.930;5.406;2022-07-23T13:40:43;2.15;;;1.85;;
69900;SDS011;57183;50.930;5.406;2022-07-23T13:43:10;1.75;;;1.55;;
69900;SDS011;57183;50.930;5.406;2022-07-23T13:45:38;2.33;;;1.70;;
69900;SDS011;57183;50.930;5.406;2022-07-23T13:48:05;4.38;;;2.17;;
69900;SDS011;57183;50.930;5.406;2022-07-23T13:50:31;2.33;;;1.80;;
69900;SDS011;57183;50.930;5.406;2022-07-23T13:52:59;2.80;;;1.63;;
69900;SDS011;57183;50.930;5.406;2022-07-23T13:55:26;2.30;;;1.90;;
69900;SDS011;57183;50.930;5.406;2022-07-23T13:57:52;2.20;;;1.67;;
69900;SDS011;57183;50.930;5.406;2022-07-23T14:00:17;2.28;;;1.88;;
69900;SDS011;57183;50.930;5.406;2022-07-23T14:02:43;3.72;;;1.70;;
69900;SDS011;57183;50.930;5.406;2022-07-23T14:05:10;3.20;;;1.65;;
69900;SDS011;57183;50.930;5.406;2022-07-23T14:07:36;4.45;;;1.77;;
69900;SDS011;57183;50.930;5.406;2022-07-23T14:10:03;2.20;;;1.63;;
69900;SDS011;57183;50.930;5.406;2022-07-23T14:12:30;1.95;;;1.75;;
69900;SDS011;57183;50.930;5.406;2022-07-23T14:14:56;2.88;;;1.95;;
69900;SDS011;57183;50.930;5.406;2022-07-23T14:17:22;2.08;;;1.88;;
69900;SDS011;57183;50.930;5.406;2022-07-23T14:19:48;3.25;;;1.75;;
69900;SDS011;57183;50.930;5.406;2022-07-23T14:22:13;5.20;;;2.03;;
69900;SDS011;57183;50.930;5.406;2022-07-23T14:24:39;3.90;;;2.00;;
69900;SDS011;57183;50.930;5.406;2022-07-23T14:27:05;5.25;;;2.30;;
69900;SDS011;57183;50.930;5.406;2022-07-23T14:29:31;5.10;;;2.10;;
69900;SDS011;57183;50.930;5.406;2022-07-23T14:31:57;4.72;;;1.75;;
69900;SDS011;57183;50.930;5.406;2022-07-23T14:34:24;3.85;;;2.10;;
69900;SDS011;57183;50.930;5.406;2022-07-23T14:36:50;2.22;;;2.00;;
69900;SDS011;57183;50.930;5.406;2022-07-23T14:39:17;2.28;;;2.08;;
69900;SDS011;57183;50.930;5.406;2022-07-23T14:41:43;2.42;;;2.22;;
69900;SDS011;57183;50.930;5.406;2022-07-23T14:44:09;3.92;;;2.00;;
69900;SDS011;57183;50.930;5.406;2022-07-23T14:46:35;2.50;;;2.20;;
69900;SDS011;57183;50.930;5.406;2022-07-23T14:49:01;2.78;;;2.05;;
69900;SDS011;57183;50.930;5.406;2022-07-23T14:51:27;2.13;;;1.92;;
69900;SDS011;57183;50.930;5.406;2022-07-23T14:53:53;4.03;;;2.30;;
69900;SDS011;57183;50.930;5.406;2022-07-23T14:56:19;2.25;;;1.77;;
69900;SDS011;57183;50.930;5.406;2022-07-23T14:58:45;2.67;;;2.30;;
69900;SDS011;57183;50.930;5.406;2022-07-23T15:01:10;2.47;;;2.28;;
69900;SDS011;57183;50.930;5.406;2022-07-23T15:03:36;3.17;;;2.15;;
69900;SDS011;57183;50.930;5.406;2022-07-23T15:06:02;2.65;;;2.45;;
69900;SDS011;57183;50.930;5.406;2022-07-23T15:08:28;2.22;;;2.03;;
69900;SDS011;57183;50.930;5.406;2022-07-23T15:10:54;5.05;;;2.17;;
69900;SDS011;57183;50.930;5.406;2022-07-23T15:13:20;2.22;;;2.03;;
69900;SDS011;57183;50.930;5.406;2022-07-23T15:15:45;2.08;;;1.85;;
69900;SDS011;57183;50.930;5.406;2022-07-23T15:18:11;4.18;;;1.90;;
69900;SDS011;57183;50.930;5.406;2022-07-23T15:20:37;7.60;;;2.55;;
69900;SDS011;57183;50.930;5.406;2022-07-23T15:23:03;2.20;;;2.00;;
69900;SDS011;57183;50.930;5.406;2022-07-23T15:25:30;4.90;;;2.10;;
69900;SDS011;57183;50.930;5.406;2022-07-23T15:27:56;4.47;;;1.92;;
69900;SDS011;57183;50.930;5.406;2022-07-23T15:30:23;2.78;;;2.00;;
69900;SDS011;57183;50.930;5.406;2022-07-23T15:32:50;2.75;;;2.30;;
69900;SDS011;57183;50.930;5.406;2022-07-23T15:35:16;4.70;;;2.30;;